createdAt,value
2019-05-12T00:01:55.528Z,102805.16
2019-05-12T00:04:28.047Z,102803.92
2019-05-12T00:07:01.822Z,102804.25
2019-05-12T00:09:33.373Z,102797.30
2019-05-12T00:12:05.081Z,102793.90
2019-05-12T00:14:38.150Z,102804.56
2019-05-12T00:17:09.829Z,102805.48
2019-05-12T00:19:41.456Z,102815.57
2019-05-12T00:22:14.852Z,102814.09
2019-05-12T00:24:47.888Z,102815.14
2019-05-12T00:27:21.385Z,102817.92
2019-05-12T00:29:53.002Z,102823.06
2019-05-12T00:32:24.566Z,102822.14
2019-05-12T00:34:58.576Z,102822.00
2019-05-12T00:37:30.078Z,102827.01
2019-05-12T00:40:01.866Z,102829.29
2019-05-12T00:42:33.528Z,102833.13
2019-05-12T00:45:07.885Z,102843.53
2019-05-12T00:47:39.097Z,102848.95
2019-05-12T00:50:10.872Z,102842.97
2019-05-12T00:52:42.338Z,102843.89
2019-05-12T00:55:14.124Z,102841.84
2019-05-12T00:57:45.619Z,102842.09
2019-05-12T01:00:17.967Z,102845.52
2019-05-12T01:02:49.472Z,102847.13
2019-05-12T01:05:20.993Z,102848.06
2019-05-12T01:07:52.475Z,102856.14
2019-05-12T01:10:23.940Z,102856.89
2019-05-12T01:12:57.836Z,102857.67
2019-05-12T01:15:29.043Z,102865.17
2019-05-12T01:18:00.563Z,102867.30
2019-05-12T01:20:32.160Z,102868.62
2019-05-12T01:23:03.788Z,102862.91
2019-05-12T01:25:35.196Z,102864.27
2019-05-12T01:28:08.122Z,102865.41
2019-05-12T01:30:39.852Z,102867.52
2019-05-12T01:33:11.294Z,102874.63
2019-05-12T01:35:42.800Z,102875.22
2019-05-12T01:38:14.292Z,102875.02
2019-05-12T01:40:47.860Z,102882.30
2019-05-12T01:43:21.281Z,102889.41
2019-05-12T01:45:52.311Z,102883.60
2019-05-12T01:48:23.802Z,102884.92
2019-05-12T01:50:57.799Z,102889.80
2019-05-12T01:53:28.848Z,102888.75
2019-05-12T01:56:00.820Z,102888.48
2019-05-12T01:58:32.497Z,102896.25
2019-05-12T02:01:04.237Z,102897.73
2019-05-12T02:03:37.514Z,102898.50
2019-05-12T02:06:09.243Z,102902.54
2019-05-12T02:08:47.812Z,102906.45
2019-05-12T02:11:34.766Z,102914.70
2019-05-12T02:14:09.347Z,102908.82
2019-05-12T02:16:40.502Z,102924.36
2019-05-12T02:19:12.070Z,102920.80
2019-05-12T02:21:43.794Z,102923.49
2019-05-12T02:24:24.248Z,102922.52
2019-05-12T02:26:48.842Z,102933.56
2019-05-12T02:29:20.387Z,102929.23
2019-05-12T02:31:51.889Z,102929.95
2019-05-12T02:34:25.464Z,102930.86
2019-05-12T02:36:56.720Z,102938.77
2019-05-12T02:39:28.269Z,102940.55
2019-05-12T02:41:59.726Z,102946.48
2019-05-12T02:44:34.560Z,102951.00
2019-05-12T02:47:06.153Z,102955.14
2019-05-12T02:49:37.857Z,102960.57
2019-05-12T02:52:09.612Z,102969.56
2019-05-12T02:54:54.338Z,102972.52
2019-05-12T02:57:17.574Z,102979.80
2019-05-12T02:59:50.567Z,102982.91
2019-05-12T03:02:24.738Z,102988.98
2019-05-12T03:04:59.870Z,102994.70
2019-05-12T03:07:34.637Z,102997.58
2019-05-12T03:10:08.528Z,103000.55
2019-05-12T03:12:40.058Z,103009.40
2019-05-12T03:15:14.859Z,103008.49
2019-05-12T03:17:45.422Z,103009.61
2019-05-12T03:20:18.677Z,103013.58
2019-05-12T03:22:50.215Z,103018.88
2019-05-12T03:25:26.129Z,103024.98
2019-05-12T03:27:55.167Z,103024.08
2019-05-12T03:30:29.117Z,103028.92
2019-05-12T03:32:59.953Z,103029.76
2019-05-12T03:35:39.598Z,103030.14
2019-05-12T03:38:05.278Z,103039.79
2019-05-12T03:40:38.403Z,103042.41
2019-05-12T03:43:13.721Z,103040.63
2019-05-12T03:45:45.201Z,103043.69
2019-05-12T03:48:17.202Z,103039.64
2019-05-12T03:50:48.848Z,103047.45
2019-05-12T03:53:20.382Z,103052.22
2019-05-12T03:55:55.049Z,103055.05
2019-05-12T03:58:25.697Z,103052.19
2019-05-12T04:00:57.535Z,103059.60
2019-05-12T04:03:29.066Z,103064.82
2019-05-12T04:06:00.589Z,103068.61
2019-05-12T04:08:34.694Z,103071.25
2019-05-12T04:11:05.648Z,103067.13
2019-05-12T04:13:37.151Z,103074.62
2019-05-12T04:16:10.766Z,103079.80
2019-05-12T04:18:45.035Z,103082.55
2019-05-12T04:21:15.928Z,103081.89
2019-05-12T04:23:47.487Z,103084.25
2019-05-12T04:26:19.156Z,103088.02
2019-05-12T04:28:50.639Z,103084.58
2019-05-12T04:31:24.954Z,103086.52
2019-05-12T04:33:55.669Z,103086.03
2019-05-12T04:36:27.164Z,103094.83
2019-05-12T04:38:58.694Z,103100.33
2019-05-12T04:41:30.494Z,103103.09
2019-05-12T04:44:05.464Z,103107.16
2019-05-12T04:46:35.934Z,103104.45
2019-05-12T04:49:07.617Z,103114.16
2019-05-12T04:51:39.131Z,103114.73
2019-05-12T04:54:10.602Z,103117.67
2019-05-12T04:56:44.592Z,103127.97
2019-05-12T04:59:16.057Z,103124.66
2019-05-12T05:01:47.674Z,103120.12
2019-05-12T05:04:19.462Z,103127.17
2019-05-12T05:06:50.970Z,103128.59
2019-05-12T05:09:24.566Z,103131.84
2019-05-12T05:11:55.857Z,103135.14
2019-05-12T05:14:27.433Z,103136.52
2019-05-12T05:16:58.940Z,103142.19
2019-05-12T05:19:30.609Z,103142.66
2019-05-12T05:22:04.243Z,103145.58
2019-05-12T05:24:35.277Z,103152.18
2019-05-12T05:27:07.019Z,103154.30
2019-05-12T05:29:38.483Z,103154.58
2019-05-12T05:32:10.217Z,103160.52
2019-05-12T05:34:46.193Z,103163.61
2019-05-12T05:37:15.477Z,103170.07
2019-05-12T05:39:49.604Z,103174.00
2019-05-12T05:42:22.127Z,103174.23
2019-05-12T05:44:54.344Z,103183.98
2019-05-12T05:47:28.602Z,103185.30
2019-05-12T05:49:59.310Z,103193.33
2019-05-12T05:52:34.206Z,103190.17
2019-05-12T05:55:14.655Z,103194.27
2019-05-12T05:57:39.383Z,103194.91
2019-05-12T06:00:17.384Z,103208.47
2019-05-12T06:02:44.932Z,103219.33
2019-05-12T06:05:19.993Z,103218.48
2019-05-12T06:07:49.698Z,103226.77
2019-05-12T06:10:34.376Z,103226.26
2019-05-12T06:12:55.451Z,103226.05
2019-05-12T06:15:29.715Z,103222.95
2019-05-12T06:18:00.100Z,103230.64
2019-05-12T06:20:37.510Z,103241.88
2019-05-12T06:23:06.198Z,103241.52
2019-05-12T06:25:54.911Z,103240.28
2019-05-12T06:28:11.113Z,103238.87
2019-05-12T06:30:45.048Z,103240.84
2019-05-12T06:33:16.560Z,103258.41
2019-05-12T06:35:48.122Z,103257.02
2019-05-12T06:38:19.739Z,103254.04
2019-05-12T06:40:54.353Z,103254.52
2019-05-12T06:43:29.074Z,103262.17
2019-05-12T06:45:58.505Z,103259.29
2019-05-12T06:48:30.428Z,103264.95
2019-05-12T06:51:04.004Z,103267.23
2019-05-12T06:53:35.676Z,103270.13
2019-05-12T06:56:09.501Z,103273.55
2019-05-12T06:58:40.834Z,103275.13
2019-05-12T07:01:19.136Z,103277.72
2019-05-12T07:03:45.930Z,103281.12
2019-05-12T07:06:19.762Z,103287.04
2019-05-12T07:09:02.303Z,103286.83
2019-05-12T07:11:24.572Z,103292.91
2019-05-12T07:14:04.511Z,103293.05
2019-05-12T07:16:30.464Z,103295.86
2019-05-12T07:19:09.706Z,103301.56
2019-05-12T07:21:35.330Z,103299.98
2019-05-12T07:24:11.017Z,103305.71
2019-05-12T07:26:40.412Z,103306.39
2019-05-12T07:29:13.396Z,103308.15
2019-05-12T07:31:45.628Z,103311.20
2019-05-12T07:34:17.255Z,103308.30
2019-05-12T07:36:50.855Z,103311.04
2019-05-12T07:39:24.185Z,103314.44
2019-05-12T07:41:55.981Z,103322.75
2019-05-12T07:44:34.176Z,103311.75
2019-05-12T07:47:03.596Z,103312.33
2019-05-12T07:49:38.585Z,103310.87
2019-05-12T07:52:08.712Z,103318.19
2019-05-12T07:54:40.280Z,103330.39
2019-05-12T07:57:17.144Z,103341.21
2019-05-12T07:59:45.997Z,103349.67
2019-05-12T08:02:23.219Z,103346.45
2019-05-12T08:04:50.905Z,103349.72
2019-05-12T08:07:28.311Z,103357.17
2019-05-12T08:09:57.030Z,103357.25
2019-05-12T08:12:30.745Z,103356.51
2019-05-12T08:15:05.435Z,103360.69
2019-05-12T08:17:35.813Z,103361.64
2019-05-12T08:20:09.023Z,103358.98
2019-05-12T08:22:40.989Z,103364.66
2019-05-12T08:25:13.564Z,103360.06
2019-05-12T08:27:51.351Z,103354.00
2019-05-12T08:30:33.643Z,103361.88
2019-05-12T08:33:09.588Z,103362.73
2019-05-12T08:35:38.982Z,103357.42
2019-05-12T08:38:14.276Z,103360.06
2019-05-12T08:40:50.872Z,103356.89
2019-05-12T08:43:18.487Z,103355.00
2019-05-12T08:45:50.075Z,103355.14
2019-05-12T08:48:24.861Z,103364.77
2019-05-12T08:50:55.066Z,103370.39
2019-05-12T08:53:28.334Z,103368.81
2019-05-12T08:56:05.008Z,103372.77
2019-05-12T08:58:46.910Z,103370.48
2019-05-12T09:01:06.963Z,103381.56
2019-05-12T09:03:38.539Z,103384.16
2019-05-12T09:06:17.909Z,103393.48
2019-05-12T09:08:49.307Z,103394.89
2019-05-12T09:11:19.875Z,103408.03
2019-05-12T09:13:52.812Z,103404.66
2019-05-12T09:16:24.892Z,103407.86
2019-05-12T09:18:56.701Z,103403.73
2019-05-12T09:21:31.464Z,103402.89
2019-05-12T09:24:03.981Z,103404.32
2019-05-12T09:26:35.317Z,103405.26
2019-05-12T09:29:07.568Z,103407.86
2019-05-12T09:31:39.304Z,103412.00
2019-05-12T09:34:12.010Z,103413.17
2019-05-12T09:36:44.280Z,103416.94
2019-05-12T09:39:15.773Z,103420.13
2019-05-12T09:41:52.101Z,103415.75
2019-05-12T09:44:25.663Z,103419.38
2019-05-12T09:46:53.672Z,103420.14
2019-05-12T09:49:31.422Z,103417.94
2019-05-12T09:51:58.533Z,103425.19
2019-05-12T09:54:35.232Z,103415.75
2019-05-12T09:57:04.401Z,103421.28
2019-05-12T09:59:36.074Z,103421.84
2019-05-12T10:02:10.412Z,103419.64
2019-05-12T10:04:41.016Z,103430.56
2019-05-12T10:07:14.107Z,103423.61
2019-05-12T10:09:49.311Z,103423.83
2019-05-12T10:12:20.771Z,103435.07
2019-05-12T10:14:53.511Z,103422.45
2019-05-12T10:17:30.130Z,103430.97
2019-05-12T10:20:00.036Z,103439.95
2019-05-12T10:22:40.346Z,103430.95
2019-05-12T10:25:14.449Z,103440.05
2019-05-12T10:27:46.166Z,103451.71
2019-05-12T10:30:18.356Z,103452.45
2019-05-12T10:32:49.773Z,103452.45
2019-05-12T10:35:26.125Z,103454.89
2019-05-12T10:37:54.709Z,103447.70
2019-05-12T10:40:26.253Z,103457.57
2019-05-12T10:42:57.933Z,103465.73
2019-05-12T10:45:31.075Z,103459.33
2019-05-12T10:48:03.888Z,103461.05
2019-05-12T10:50:35.379Z,103453.24
2019-05-12T10:53:09.967Z,103461.68
2019-05-12T10:55:40.697Z,103466.24
2019-05-12T10:58:14.342Z,103461.25
2019-05-12T11:00:45.844Z,103456.73
2019-05-12T11:03:17.272Z,103463.33
2019-05-12T11:05:48.759Z,103470.64
2019-05-12T11:08:24.672Z,103466.38
2019-05-12T11:11:01.189Z,103463.78
2019-05-12T11:13:30.970Z,103470.05
2019-05-12T11:16:03.950Z,103459.84
2019-05-12T11:18:35.803Z,103467.72
2019-05-12T11:21:07.400Z,103465.04
2019-05-12T11:23:39.004Z,103468.80
2019-05-12T11:26:10.690Z,103482.52
2019-05-12T11:28:45.481Z,103483.98
2019-05-12T11:31:17.677Z,103475.54
2019-05-12T11:33:49.649Z,103480.27
2019-05-12T11:36:24.093Z,103482.35
2019-05-12T11:38:55.989Z,103495.36
2019-05-12T11:41:28.537Z,103475.77
2019-05-12T11:44:00.305Z,103487.50
2019-05-12T11:46:36.168Z,103491.55
2019-05-12T11:49:05.617Z,103500.20
2019-05-12T11:51:37.143Z,103492.67
2019-05-12T11:54:10.838Z,103494.33
2019-05-12T11:56:46.470Z,103512.58
2019-05-12T11:59:16.137Z,103504.87
2019-05-12T12:01:51.458Z,103513.42
2019-05-12T12:04:23.989Z,103509.33
2019-05-12T12:06:55.493Z,103518.79
2019-05-12T12:09:26.999Z,103512.84
2019-05-12T12:12:03.165Z,103520.39
2019-05-12T12:14:34.342Z,103518.56
2019-05-12T12:17:05.401Z,103531.86
2019-05-12T12:19:43.699Z,103525.28
2019-05-12T12:22:10.286Z,103527.02
2019-05-12T12:24:43.630Z,103528.05
2019-05-12T12:27:15.089Z,103529.16
2019-05-12T12:29:46.749Z,103529.87
2019-05-12T12:32:20.307Z,103529.70
2019-05-12T12:34:54.394Z,103537.42
2019-05-12T12:37:26.422Z,103534.63
2019-05-12T12:40:00.632Z,103545.09
2019-05-12T12:42:36.971Z,103538.72
2019-05-12T12:45:18.941Z,103550.73
2019-05-12T12:47:50.440Z,103536.81
2019-05-12T12:50:26.353Z,103548.48
2019-05-12T12:52:55.604Z,103548.19
2019-05-12T12:55:27.169Z,103554.76
2019-05-12T12:57:58.935Z,103551.16
2019-05-12T13:00:40.687Z,103556.40
2019-05-12T13:03:03.901Z,103558.28
2019-05-12T13:05:35.482Z,103556.42
2019-05-12T13:08:26.328Z,103557.44
2019-05-12T13:11:00.000Z,103556.89
2019-05-12T13:13:31.583Z,103560.80
2019-05-12T13:16:05.197Z,103570.45
2019-05-12T13:18:36.809Z,103563.87
2019-05-12T13:21:08.802Z,103571.91
2019-05-12T13:23:41.975Z,103567.63
2019-05-12T13:26:13.812Z,103562.17
2019-05-12T13:28:53.014Z,103573.09
2019-05-12T13:31:18.619Z,103569.13
2019-05-12T13:33:54.763Z,103569.43
2019-05-12T13:36:24.278Z,103585.77
2019-05-12T13:38:55.981Z,103581.35
2019-05-12T13:41:27.652Z,103583.24
2019-05-12T13:44:00.111Z,103585.98
2019-05-12T13:46:34.368Z,103589.95
2019-05-12T13:49:05.613Z,103584.20
2019-05-12T13:51:37.235Z,103589.88
2019-05-12T13:54:09.981Z,103581.72
2019-05-12T13:56:44.115Z,103582.91
2019-05-12T13:59:20.772Z,103595.05
2019-05-12T14:01:49.151Z,103595.38
2019-05-12T14:04:27.848Z,103592.17
2019-05-12T14:06:56.192Z,103601.27
2019-05-12T14:09:27.777Z,103599.02
2019-05-12T14:11:59.552Z,103599.45
2019-05-12T14:14:31.104Z,103589.50
2019-05-12T14:17:04.410Z,103597.04
2019-05-12T14:19:37.643Z,103606.70
2019-05-12T14:22:15.540Z,103608.41
2019-05-12T14:24:46.689Z,103609.64
2019-05-12T14:27:19.240Z,103614.45
2019-05-12T14:29:50.455Z,103618.77
2019-05-12T14:32:23.931Z,103613.61
2019-05-12T14:34:59.406Z,103616.66
2019-05-12T14:37:28.808Z,103610.70
2019-05-12T14:40:00.444Z,103610.16
2019-05-12T14:42:34.648Z,103613.19
2019-05-12T14:45:05.944Z,103614.00
2019-05-12T14:47:39.011Z,103609.37
2019-05-12T14:50:11.112Z,103612.98
2019-05-12T14:52:44.039Z,103610.98
2019-05-12T14:55:16.113Z,103617.05
2019-05-12T14:57:47.953Z,103622.38
2019-05-12T15:00:23.607Z,103615.01
2019-05-12T15:02:54.279Z,103620.70
2019-05-12T15:05:27.710Z,103616.81
2019-05-12T15:08:00.528Z,103615.69
2019-05-12T15:10:33.762Z,103611.70
2019-05-12T15:13:05.443Z,103613.09
2019-05-12T15:15:39.390Z,103619.20
2019-05-12T15:18:13.070Z,103622.66
2019-05-12T15:20:49.771Z,103619.05
2019-05-12T15:23:17.548Z,103624.52
2019-05-12T15:25:50.991Z,103626.73
2019-05-12T15:28:23.841Z,103620.42
2019-05-12T15:30:55.540Z,103621.72
2019-05-12T15:33:27.081Z,103621.94
2019-05-12T15:35:58.915Z,103626.97
2019-05-12T15:38:34.218Z,103626.45
2019-05-12T15:41:10.540Z,103631.92
2019-05-12T15:43:45.889Z,103629.21
2019-05-12T15:46:16.409Z,103623.88
2019-05-12T15:48:48.222Z,103622.42
2019-05-12T15:51:19.902Z,103625.73
2019-05-12T15:53:57.342Z,103618.00
2019-05-12T15:56:26.310Z,103633.63
2019-05-12T15:59:00.932Z,103630.17
2019-05-12T16:01:33.380Z,103639.72
2019-05-12T16:04:05.198Z,103636.48
2019-05-12T16:06:44.720Z,103642.58
2019-05-12T16:09:13.254Z,103639.83
2019-05-12T16:11:45.355Z,103644.59
2019-05-12T16:14:18.102Z,103651.59
2019-05-12T16:16:53.441Z,103643.98
2019-05-12T16:19:26.547Z,103657.94
2019-05-12T16:21:57.277Z,103655.39
2019-05-12T16:24:29.239Z,103653.91
2019-05-12T16:27:03.584Z,103660.08
2019-05-12T16:29:38.964Z,103654.12
2019-05-12T16:32:23.136Z,103658.61
2019-05-12T16:34:47.560Z,103663.05
2019-05-12T16:37:16.227Z,103665.81
2019-05-12T16:39:47.959Z,103673.08
2019-05-12T16:42:19.365Z,103673.28
2019-05-12T16:44:56.257Z,103673.73
2019-05-12T16:47:29.071Z,103663.41
2019-05-12T16:49:57.557Z,103670.11
2019-05-12T16:52:32.445Z,103671.34
2019-05-12T16:55:04.495Z,103661.60
2019-05-12T16:57:36.162Z,103674.05
2019-05-12T17:00:08.639Z,103678.34
2019-05-12T17:02:42.197Z,103670.14
2019-05-12T17:05:20.082Z,103669.12
2019-05-12T17:07:50.337Z,103669.89
2019-05-12T17:10:21.442Z,103670.64
2019-05-12T17:12:54.337Z,103682.86
2019-05-12T17:15:26.253Z,103671.00
2019-05-12T17:18:01.494Z,103683.63
2019-05-12T17:20:33.034Z,103684.11
2019-05-12T17:23:05.068Z,103684.73
2019-05-12T17:25:37.873Z,103687.00
2019-05-12T17:28:13.103Z,103690.30
2019-05-12T17:30:44.462Z,103696.87
2019-05-12T17:33:22.711Z,103696.34
2019-05-12T17:35:49.184Z,103694.13
2019-05-12T17:38:22.467Z,103694.86
2019-05-12T17:40:56.467Z,103696.17
2019-05-12T17:43:27.639Z,103703.59
2019-05-12T17:46:01.252Z,103711.22
2019-05-12T17:48:37.419Z,103711.56
2019-05-12T17:51:05.886Z,103711.05
2019-05-12T17:53:38.605Z,103709.48
2019-05-12T17:56:10.781Z,103720.92
2019-05-12T17:58:47.290Z,103721.53
2019-05-12T18:01:22.304Z,103718.20
2019-05-12T18:03:50.911Z,103727.38
2019-05-12T18:06:26.829Z,103723.77
2019-05-12T18:08:55.856Z,103726.25
2019-05-12T18:11:27.693Z,103726.64
2019-05-12T18:14:02.492Z,103717.68
2019-05-12T18:16:33.944Z,103715.98
2019-05-12T18:19:09.021Z,103714.47
2019-05-12T18:21:39.160Z,103723.72
2019-05-12T18:24:11.925Z,103719.45
2019-05-12T18:26:47.112Z,103723.64
2019-05-12T18:29:17.665Z,103727.55
2019-05-12T18:31:52.677Z,103739.70
2019-05-12T18:34:25.231Z,103733.66
2019-05-12T18:36:59.659Z,103732.57
2019-05-12T18:39:30.870Z,103735.16
2019-05-12T18:42:03.584Z,103735.23
2019-05-12T18:44:35.399Z,103733.65
2019-05-12T18:47:07.453Z,103733.91
2019-05-12T18:49:42.074Z,103731.05
2019-05-12T18:52:14.773Z,103737.34
2019-05-12T18:54:52.180Z,103736.91
2019-05-12T18:57:23.775Z,103744.40
2019-05-12T19:00:01.415Z,103745.11
2019-05-12T19:02:28.769Z,103748.12
2019-05-12T19:05:04.364Z,103751.00
2019-05-12T19:07:39.758Z,103746.83
2019-05-12T19:10:09.511Z,103752.02
2019-05-12T19:12:43.735Z,103747.21
2019-05-12T19:15:20.115Z,103757.12
2019-05-12T19:17:48.816Z,103756.34
2019-05-12T19:20:21.123Z,103763.67
2019-05-12T19:22:59.203Z,103765.03
2019-05-12T19:25:30.069Z,103764.25
2019-05-12T19:28:05.709Z,103768.66
2019-05-12T19:30:36.734Z,103765.73
2019-05-12T19:33:10.802Z,103766.19
2019-05-12T19:35:42.042Z,103769.37
2019-05-12T19:38:15.634Z,103766.39
2019-05-12T19:40:55.119Z,103773.50
2019-05-12T19:43:20.416Z,103768.67
2019-05-12T19:45:53.623Z,103775.66
2019-05-12T19:48:27.612Z,103768.03
2019-05-12T19:51:03.159Z,103771.22
2019-05-12T19:53:33.260Z,103785.73
2019-05-12T19:56:05.123Z,103780.03
2019-05-12T19:58:36.910Z,103778.44
2019-05-12T20:01:08.880Z,103783.38
2019-05-12T20:03:43.938Z,103782.95
2019-05-12T20:06:16.167Z,103782.09
2019-05-12T20:08:55.813Z,103785.31
2019-05-12T20:11:26.524Z,103787.74
2019-05-12T20:13:56.783Z,103783.86
2019-05-12T20:16:30.590Z,103785.91
2019-05-12T20:19:04.098Z,103786.94
2019-05-12T20:21:38.090Z,103784.16
2019-05-12T20:24:10.011Z,103785.31
2019-05-12T20:26:44.090Z,103782.45
2019-05-12T20:29:16.130Z,103792.59
2019-05-12T20:31:48.808Z,103794.27
2019-05-12T20:34:20.847Z,103793.66
2019-05-12T20:36:53.694Z,103798.09
2019-05-12T20:39:26.164Z,103795.81
2019-05-12T20:42:00.812Z,103794.40
2019-05-12T20:44:31.422Z,103795.15
2019-05-12T20:47:06.322Z,103797.69
2019-05-12T20:49:36.948Z,103799.22
2019-05-12T20:52:09.713Z,103803.88
2019-05-12T20:54:44.113Z,103805.70
2019-05-12T20:57:16.197Z,103808.03
2019-05-12T20:59:47.872Z,103811.61
2019-05-12T21:02:19.497Z,103809.20
2019-05-12T21:05:00.518Z,103818.50
2019-05-12T21:07:26.907Z,103813.39
2019-05-12T21:09:58.315Z,103815.47
2019-05-12T21:12:30.148Z,103823.40
2019-05-12T21:15:13.755Z,103815.51
2019-05-12T21:17:43.069Z,103816.46
2019-05-12T21:20:14.398Z,103812.36
2019-05-12T21:22:44.062Z,103817.09
2019-05-12T21:25:15.890Z,103822.69
2019-05-12T21:27:48.041Z,103824.22
2019-05-12T21:30:21.443Z,103829.58
2019-05-12T21:33:01.096Z,103821.15
2019-05-12T21:35:31.879Z,103820.56
2019-05-12T21:38:03.961Z,103824.42
2019-05-12T21:40:35.220Z,103821.35
2019-05-12T21:43:07.164Z,103819.61
2019-05-12T21:45:39.017Z,103822.59
2019-05-12T21:48:15.082Z,103826.03
2019-05-12T21:50:45.319Z,103823.84
2019-05-12T21:53:20.669Z,103831.77
2019-05-12T21:55:57.659Z,103825.23
2019-05-12T21:58:24.431Z,103830.59
2019-05-12T22:01:05.168Z,103832.74
2019-05-12T22:03:35.147Z,103824.11
2019-05-12T22:06:19.168Z,103828.49
2019-05-12T22:08:40.369Z,103830.82
2019-05-12T22:11:12.265Z,103829.91
2019-05-12T22:13:55.039Z,103837.78
2019-05-12T22:16:20.006Z,103834.80
2019-05-12T22:18:56.048Z,103837.38
2019-05-12T22:21:24.981Z,103837.44
2019-05-12T22:23:56.632Z,103833.45
2019-05-12T22:26:30.627Z,103840.78
2019-05-12T22:29:04.172Z,103846.87
2019-05-12T22:31:38.630Z,103844.44
2019-05-12T22:34:08.584Z,103838.69
2019-05-12T22:36:45.366Z,103841.34
2019-05-12T22:39:14.336Z,103846.64
2019-05-12T22:41:45.999Z,103850.53
2019-05-12T22:44:20.840Z,103852.12
2019-05-12T22:46:50.834Z,103849.94
2019-05-12T22:49:22.404Z,103842.61
2019-05-12T22:52:02.487Z,103843.88
2019-05-12T22:54:27.675Z,103845.39
2019-05-12T22:56:59.204Z,103844.80
2019-05-12T22:59:34.341Z,103849.55
2019-05-12T23:02:04.537Z,103850.64
2019-05-12T23:04:40.289Z,103845.41
2019-05-12T23:07:09.675Z,103849.34
2019-05-12T23:09:43.542Z,103848.88
2019-05-12T23:12:19.910Z,103856.28
2019-05-12T23:14:54.065Z,103857.42
2019-05-12T23:17:24.452Z,103858.94
2019-05-12T23:19:55.961Z,103861.95
2019-05-12T23:22:29.313Z,103867.06
2019-05-12T23:25:03.814Z,103866.19
2019-05-12T23:27:34.412Z,103864.63
2019-05-12T23:30:11.000Z,103867.42
2019-05-12T23:32:45.294Z,103870.22
2019-05-12T23:35:14.414Z,103870.58
2019-05-12T23:37:46.642Z,103866.68
2019-05-12T23:40:18.208Z,103864.80
2019-05-12T23:42:49.934Z,103860.83
2019-05-12T23:45:21.588Z,103866.63
2019-05-12T23:47:54.034Z,103872.70
2019-05-12T23:50:25.717Z,103868.62
2019-05-12T23:52:57.856Z,103867.70
2019-05-12T23:55:31.512Z,103863.42
2019-05-12T23:58:04.294Z,103875.35
